sensor_id;sensor_type;location;lat;lon;timestamp;P1;durP1;ratioP1;P2;durP2;ratioP2
5040;SDS011;2539;52.568;13.364;2022-10-31T00:00:04;40.60;;;30.83;;
5040;SDS011;2539;52.568;13.364;2022-10-31T00:02:32;38.03;;;32.50;;
5040;SDS011;2539;52.568;13.364;2022-10-31T00:04:58;38.77;;;29.97;;
5040;SDS011;2539;52.568;13.364;2022-10-31T00:07:24;36.70;;;30.23;;
5040;SDS011;2539;52.568;13.364;2022-10-31T00:09:51;38.00;;;29.23;;
5040;SDS011;2539;52.568;13.364;2022-10-31T00:12:17;40.20;;;30.03;;
5040;SDS011;2539;52.568;13.364;2022-10-31T00:14:43;39.90;;;30.50;;
5040;SDS011;2539;52.568;13.364;2022-10-31T00:17:09;38.53;;;29.10;;
5040;SDS011;2539;52.568;13.364;2022-10-31T00:19:35;39.03;;;30.30;;
5040;SDS011;2539;52.568;13.364;2022-10-31T00:22:02;37.43;;;29.90;;
5040;SDS011;2539;52.568;13.364;2022-10-31T00:24:28;39.20;;;30.80;;
5040;SDS011;2539;52.568;13.364;2022-10-31T00:26:54;39.90;;;29.50;;
5040;SDS011;2539;52.568;13.364;2022-10-31T00:29:20;39.93;;;30.90;;
5040;SDS011;2539;52.568;13.364;2022-10-31T00:31:47;42.43;;;31.17;;
5040;SDS011;2539;52.568;13.364;2022-10-31T00:34:13;34.13;;;28.80;;
5040;SDS011;2539;52.568;13.364;2022-10-31T00:36:39;40.20;;;30.80;;
5040;SDS011;2539;52.568;13.364;2022-10-31T00:39:05;39.10;;;28.87;;
5040;SDS011;2539;52.568;13.364;2022-10-31T00:41:32;39.40;;;29.80;;
5040;SDS011;2539;52.568;13.364;2022-10-31T00:43:58;34.60;;;29.70;;
5040;SDS011;2539;52.568;13.364;2022-10-31T00:46:24;38.13;;;29.40;;
5040;SDS011;2539;52.568;13.364;2022-10-31T00:48:50;37.10;;;29.37;;
5040;SDS011;2539;52.568;13.364;2022-10-31T00:51:17;41.20;;;31.50;;
5040;SDS011;2539;52.568;13.364;2022-10-31T00:53:43;38.53;;;31.17;;
5040;SDS011;2539;52.568;13.364;2022-10-31T00:56:09;38.30;;;31.37;;
5040;SDS011;2539;52.568;13.364;2022-10-31T00:58:36;40.93;;;30.70;;
5040;SDS011;2539;52.568;13.364;2022-10-31T01:01:03;37.50;;;30.40;;
5040;SDS011;2539;52.568;13.364;2022-10-31T01:03:30;39.83;;;30.63;;
5040;SDS011;2539;52.568;13.364;2022-10-31T01:08:32;41.87;;;31.70;;
5040;SDS011;2539;52.568;13.364;2022-10-31T01:11:12;43.27;;;32.83;;
5040;SDS011;2539;52.568;13.364;2022-10-31T01:13:41;41.27;;;30.60;;
5040;SDS011;2539;52.568;13.364;2022-10-31T01:16:09;38.73;;;31.57;;
5040;SDS011;2539;52.568;13.364;2022-10-31T01:18:37;36.13;;;29.30;;
5040;SDS011;2539;52.568;13.364;2022-10-31T01:21:04;40.43;;;29.77;;
5040;SDS011;2539;52.568;13.364;2022-10-31T01:23:31;36.90;;;28.17;;
5040;SDS011;2539;52.568;13.364;2022-10-31T01:26:02;36.73;;;29.50;;
5040;SDS011;2539;52.568;13.364;2022-10-31T01:28:31;41.90;;;30.40;;
5040;SDS011;2539;52.568;13.364;2022-10-31T01:31:04;37.00;;;28.67;;
5040;SDS011;2539;52.568;13.364;2022-10-31T01:33:33;39.50;;;28.90;;
5040;SDS011;2539;52.568;13.364;2022-10-31T01:36:00;36.13;;;28.87;;
5040;SDS011;2539;52.568;13.364;2022-10-31T01:38:26;31.57;;;27.43;;
5040;SDS011;2539;52.568;13.364;2022-10-31T01:40:53;32.03;;;27.67;;
5040;SDS011;2539;52.568;13.364;2022-10-31T01:43:19;35.20;;;27.90;;
5040;SDS011;2539;52.568;13.364;2022-10-31T01:45:49;37.67;;;26.77;;
5040;SDS011;2539;52.568;13.364;2022-10-31T01:48:19;34.10;;;26.27;;
5040;SDS011;2539;52.568;13.364;2022-10-31T01:50:50;34.10;;;26.87;;
5040;SDS011;2539;52.568;13.364;2022-10-31T01:53:19;37.80;;;27.97;;
5040;SDS011;2539;52.568;13.364;2022-10-31T01:55:47;40.20;;;27.87;;
5040;SDS011;2539;52.568;13.364;2022-10-31T01:58:14;33.57;;;26.83;;
5040;SDS011;2539;52.568;13.364;2022-10-31T02:00:49;36.83;;;26.77;;
5040;SDS011;2539;52.568;13.364;2022-10-31T02:03:19;32.37;;;27.30;;
5040;SDS011;2539;52.568;13.364;2022-10-31T02:05:47;35.50;;;27.20;;
5040;SDS011;2539;52.568;13.364;2022-10-31T02:08:27;34.43;;;26.23;;
5040;SDS011;2539;52.568;13.364;2022-10-31T02:10:56;32.27;;;25.03;;
5040;SDS011;2539;52.568;13.364;2022-10-31T02:13:24;35.27;;;26.37;;
5040;SDS011;2539;52.568;13.364;2022-10-31T02:15:52;30.57;;;22.97;;
5040;SDS011;2539;52.568;13.364;2022-10-31T02:18:20;30.90;;;24.13;;
5040;SDS011;2539;52.568;13.364;2022-10-31T02:20:59;32.93;;;24.00;;
5040;SDS011;2539;52.568;13.364;2022-10-31T02:23:33;27.37;;;22.47;;
5040;SDS011;2539;52.568;13.364;2022-10-31T02:32:19;40.80;;;22.90;;
5040;SDS011;2539;52.568;13.364;2022-10-31T02:37:51;31.67;;;24.23;;
5040;SDS011;2539;52.568;13.364;2022-10-31T02:49:05;33.00;;;24.13;;
5040;SDS011;2539;52.568;13.364;2022-10-31T02:51:35;32.80;;;24.63;;
5040;SDS011;2539;52.568;13.364;2022-10-31T02:54:03;31.33;;;23.50;;
5040;SDS011;2539;52.568;13.364;2022-10-31T02:56:29;31.03;;;22.60;;
5040;SDS011;2539;52.568;13.364;2022-10-31T02:58:57;37.47;;;22.43;;
5040;SDS011;2539;52.568;13.364;2022-10-31T03:05:08;28.60;;;20.87;;
5040;SDS011;2539;52.568;13.364;2022-10-31T03:07:57;29.27;;;21.13;;
5040;SDS011;2539;52.568;13.364;2022-10-31T03:13:21;31.70;;;20.37;;
5040;SDS011;2539;52.568;13.364;2022-10-31T03:16:14;29.23;;;19.63;;
5040;SDS011;2539;52.568;13.364;2022-10-31T03:18:44;28.53;;;19.93;;
5040;SDS011;2539;52.568;13.364;2022-10-31T03:24:10;32.67;;;20.80;;
5040;SDS011;2539;52.568;13.364;2022-10-31T03:26:39;27.70;;;19.60;;
5040;SDS011;2539;52.568;13.364;2022-10-31T03:29:09;25.60;;;20.03;;
5040;SDS011;2539;52.568;13.364;2022-10-31T03:31:40;28.17;;;21.70;;
5040;SDS011;2539;52.568;13.364;2022-10-31T03:34:12;26.13;;;20.70;;
5040;SDS011;2539;52.568;13.364;2022-10-31T03:36:39;26.20;;;20.80;;
5040;SDS011;2539;52.568;13.364;2022-10-31T03:39:07;25.53;;;19.90;;
5040;SDS011;2539;52.568;13.364;2022-10-31T03:41:38;26.53;;;19.47;;
5040;SDS011;2539;52.568;13.364;2022-10-31T03:44:14;28.33;;;19.33;;
5040;SDS011;2539;52.568;13.364;2022-10-31T03:46:44;24.50;;;20.00;;
5040;SDS011;2539;52.568;13.364;2022-10-31T03:49:11;25.50;;;20.50;;
5040;SDS011;2539;52.568;13.364;2022-10-31T03:51:50;27.80;;;18.37;;
5040;SDS011;2539;52.568;13.364;2022-10-31T03:57:32;26.33;;;19.63;;
5040;SDS011;2539;52.568;13.364;2022-10-31T04:00:11;28.43;;;18.90;;
5040;SDS011;2539;52.568;13.364;2022-10-31T04:02:40;27.67;;;19.30;;
5040;SDS011;2539;52.568;13.364;2022-10-31T04:05:09;24.13;;;19.13;;
5040;SDS011;2539;52.568;13.364;2022-10-31T04:07:39;27.57;;;19.23;;
5040;SDS011;2539;52.568;13.364;2022-10-31T04:10:11;23.67;;;20.20;;
5040;SDS011;2539;52.568;13.364;2022-10-31T04:12:39;23.40;;;18.10;;
5040;SDS011;2539;52.568;13.364;2022-10-31T04:15:06;23.43;;;17.57;;
5040;SDS011;2539;52.568;13.364;2022-10-31T04:17:34;30.47;;;19.37;;
5040;SDS011;2539;52.568;13.364;2022-10-31T04:20:03;28.57;;;19.43;;
5040;SDS011;2539;52.568;13.364;2022-10-31T04:22:30;24.53;;;17.80;;
5040;SDS011;2539;52.568;13.364;2022-10-31T04:24:57;28.03;;;18.53;;
5040;SDS011;2539;52.568;13.364;2022-10-31T04:27:23;24.10;;;18.00;;
5040;SDS011;2539;52.568;13.364;2022-10-31T04:29:49;20.90;;;17.93;;
5040;SDS011;2539;52.568;13.364;2022-10-31T04:32:16;29.40;;;17.07;;
5040;SDS011;2539;52.568;13.364;2022-10-31T04:34:41;28.00;;;18.00;;
5040;SDS011;2539;52.568;13.364;2022-10-31T04:37:07;25.37;;;17.67;;
5040;SDS011;2539;52.568;13.364;2022-10-31T04:39:32;29.37;;;18.47;;
5040;SDS011;2539;52.568;13.364;2022-10-31T04:41:58;24.33;;;18.67;;
5040;SDS011;2539;52.568;13.364;2022-10-31T04:44:24;23.87;;;18.40;;
5040;SDS011;2539;52.568;13.364;2022-10-31T04:46:51;23.17;;;18.30;;
5040;SDS011;2539;52.568;13.364;2022-10-31T04:49:17;26.97;;;19.10;;
5040;SDS011;2539;52.568;13.364;2022-10-31T04:51:42;22.60;;;17.40;;
5040;SDS011;2539;52.568;13.364;2022-10-31T04:54:08;24.13;;;18.67;;
5040;SDS011;2539;52.568;13.364;2022-10-31T04:56:34;22.57;;;17.10;;
5040;SDS011;2539;52.568;13.364;2022-10-31T04:58:59;21.03;;;17.87;;
5040;SDS011;2539;52.568;13.364;2022-10-31T05:01:31;22.10;;;17.57;;
5040;SDS011;2539;52.568;13.364;2022-10-31T05:03:57;23.03;;;18.80;;
5040;SDS011;2539;52.568;13.364;2022-10-31T05:06:22;22.40;;;18.20;;
5040;SDS011;2539;52.568;13.364;2022-10-31T05:08:48;25.53;;;19.27;;
5040;SDS011;2539;52.568;13.364;2022-10-31T05:11:14;23.00;;;17.60;;
5040;SDS011;2539;52.568;13.364;2022-10-31T05:13:40;23.30;;;18.40;;
5040;SDS011;2539;52.568;13.364;2022-10-31T05:16:06;22.33;;;17.70;;
5040;SDS011;2539;52.568;13.364;2022-10-31T05:18:33;28.23;;;18.43;;
5040;SDS011;2539;52.568;13.364;2022-10-31T05:20:59;24.53;;;18.37;;
5040;SDS011;2539;52.568;13.364;2022-10-31T05:23:25;22.50;;;17.47;;
5040;SDS011;2539;52.568;13.364;2022-10-31T05:25:52;23.57;;;17.53;;
5040;SDS011;2539;52.568;13.364;2022-10-31T05:28:18;26.27;;;19.00;;
5040;SDS011;2539;52.568;13.364;2022-10-31T05:30:44;22.27;;;18.43;;
5040;SDS011;2539;52.568;13.364;2022-10-31T05:33:11;26.30;;;17.67;;
5040;SDS011;2539;52.568;13.364;2022-10-31T05:35:37;28.77;;;18.07;;
5040;SDS011;2539;52.568;13.364;2022-10-31T05:38:03;36.20;;;28.13;;
5040;SDS011;2539;52.568;13.364;2022-10-31T05:40:30;25.53;;;18.37;;
5040;SDS011;2539;52.568;13.364;2022-10-31T05:42:56;22.33;;;17.70;;
5040;SDS011;2539;52.568;13.364;2022-10-31T05:45:24;24.53;;;19.20;;
5040;SDS011;2539;52.568;13.364;2022-10-31T05:47:57;23.50;;;18.30;;
5040;SDS011;2539;52.568;13.364;2022-10-31T05:50:25;21.80;;;17.27;;
5040;SDS011;2539;52.568;13.364;2022-10-31T05:52:54;23.37;;;16.80;;
5040;SDS011;2539;52.568;13.364;2022-10-31T05:55:25;20.53;;;17.17;;
5040;SDS011;2539;52.568;13.364;2022-10-31T05:57:52;22.50;;;17.00;;
5040;SDS011;2539;52.568;13.364;2022-10-31T06:00:19;22.30;;;17.20;;
5040;SDS011;2539;52.568;13.364;2022-10-31T06:02:46;24.13;;;16.50;;
5040;SDS011;2539;52.568;13.364;2022-10-31T06:05:13;22.20;;;17.33;;
5040;SDS011;2539;52.568;13.364;2022-10-31T06:07:39;25.23;;;17.90;;
5040;SDS011;2539;52.568;13.364;2022-10-31T06:10:06;22.53;;;17.30;;
5040;SDS011;2539;52.568;13.364;2022-10-31T06:12:33;25.87;;;17.13;;
5040;SDS011;2539;52.568;13.364;2022-10-31T06:15:04;19.47;;;16.73;;
5040;SDS011;2539;52.568;13.364;2022-10-31T06:17:31;23.50;;;16.97;;
5040;SDS011;2539;52.568;13.364;2022-10-31T06:19:58;22.53;;;16.63;;
5040;SDS011;2539;52.568;13.364;2022-10-31T06:22:25;21.20;;;17.23;;
5040;SDS011;2539;52.568;13.364;2022-10-31T06:24:51;22.07;;;17.00;;
5040;SDS011;2539;52.568;13.364;2022-10-31T06:27:18;22.37;;;17.43;;
5040;SDS011;2539;52.568;13.364;2022-10-31T06:29:49;24.37;;;17.40;;
5040;SDS011;2539;52.568;13.364;2022-10-31T06:32:15;22.43;;;16.90;;
5040;SDS011;2539;52.568;13.364;2022-10-31T06:34:41;23.63;;;16.43;;
5040;SDS011;2539;52.568;13.364;2022-10-31T06:37:07;20.30;;;16.70;;
5040;SDS011;2539;52.568;13.364;2022-10-31T06:39:34;21.63;;;15.97;;
5040;SDS011;2539;52.568;13.364;2022-10-31T06:42:01;22.80;;;16.67;;
5040;SDS011;2539;52.568;13.364;2022-10-31T06:44:28;24.43;;;16.47;;
5040;SDS011;2539;52.568;13.364;2022-10-31T06:46:54;28.60;;;17.10;;
5040;SDS011;2539;52.568;13.364;2022-10-31T06:49:21;26.07;;;19.50;;
5040;SDS011;2539;52.568;13.364;2022-10-31T06:51:47;26.33;;;17.80;;
5040;SDS011;2539;52.568;13.364;2022-10-31T06:54:14;23.63;;;16.03;;
5040;SDS011;2539;52.568;13.364;2022-10-31T06:56:41;21.60;;;17.03;;
5040;SDS011;2539;52.568;13.364;2022-10-31T06:59:07;28.57;;;17.73;;
5040;SDS011;2539;52.568;13.364;2022-10-31T07:01:34;23.50;;;15.90;;
5040;SDS011;2539;52.568;13.364;2022-10-31T07:04:00;25.20;;;16.07;;
5040;SDS011;2539;52.568;13.364;2022-10-31T07:06:26;23.13;;;16.00;;
5040;SDS011;2539;52.568;13.364;2022-10-31T07:08:52;31.73;;;16.70;;
5040;SDS011;2539;52.568;13.364;2022-10-31T07:11:19;22.17;;;16.10;;
5040;SDS011;2539;52.568;13.364;2022-10-31T07:13:45;23.60;;;16.03;;
5040;SDS011;2539;52.568;13.364;2022-10-31T07:16:11;27.80;;;15.80;;
5040;SDS011;2539;52.568;13.364;2022-10-31T07:18:39;24.00;;;16.57;;
5040;SDS011;2539;52.568;13.364;2022-10-31T07:21:05;22.00;;;15.20;;
5040;SDS011;2539;52.568;13.364;2022-10-31T07:23:32;22.20;;;16.63;;
5040;SDS011;2539;52.568;13.364;2022-10-31T07:25:58;21.53;;;16.93;;
5040;SDS011;2539;52.568;13.364;2022-10-31T07:28:25;21.47;;;16.00;;
5040;SDS011;2539;52.568;13.364;2022-10-31T07:30:53;25.23;;;16.60;;
5040;SDS011;2539;52.568;13.364;2022-10-31T07:33:20;23.60;;;15.33;;
5040;SDS011;2539;52.568;13.364;2022-10-31T07:35:47;20.20;;;14.87;;
5040;SDS011;2539;52.568;13.364;2022-10-31T07:38:15;24.07;;;16.13;;
5040;SDS011;2539;52.568;13.364;2022-10-31T07:40:42;22.53;;;16.43;;
5040;SDS011;2539;52.568;13.364;2022-10-31T07:43:10;22.93;;;16.53;;
5040;SDS011;2539;52.568;13.364;2022-10-31T07:45:37;21.70;;;16.53;;
5040;SDS011;2539;52.568;13.364;2022-10-31T07:48:02;22.43;;;16.00;;
5040;SDS011;2539;52.568;13.364;2022-10-31T07:50:29;22.60;;;19.03;;
5040;SDS011;2539;52.568;13.364;2022-10-31T07:53:06;23.77;;;17.07;;
5040;SDS011;2539;52.568;13.364;2022-10-31T07:55:33;22.10;;;17.87;;
5040;SDS011;2539;52.568;13.364;2022-10-31T07:58:00;30.67;;;18.90;;
5040;SDS011;2539;52.568;13.364;2022-10-31T08:00:30;33.47;;;17.60;;
5040;SDS011;2539;52.568;13.364;2022-10-31T08:02:59;24.90;;;18.20;;
5040;SDS011;2539;52.568;13.364;2022-10-31T08:05:27;24.13;;;17.90;;
5040;SDS011;2539;52.568;13.364;2022-10-31T08:07:54;24.43;;;17.53;;
5040;SDS011;2539;52.568;13.364;2022-10-31T08:10:21;24.63;;;18.50;;
5040;SDS011;2539;52.568;13.364;2022-10-31T08:12:54;27.53;;;18.60;;
5040;SDS011;2539;52.568;13.364;2022-10-31T08:15:21;33.60;;;20.40;;
5040;SDS011;2539;52.568;13.364;2022-10-31T08:17:47;28.20;;;18.63;;
5040;SDS011;2539;52.568;13.364;2022-10-31T08:20:14;34.47;;;21.67;;
5040;SDS011;2539;52.568;13.364;2022-10-31T08:22:40;31.17;;;20.13;;
5040;SDS011;2539;52.568;13.364;2022-10-31T08:25:07;31.90;;;19.10;;
5040;SDS011;2539;52.568;13.364;2022-10-31T08:27:34;28.20;;;19.90;;
5040;SDS011;2539;52.568;13.364;2022-10-31T08:30:00;27.57;;;19.80;;
5040;SDS011;2539;52.568;13.364;2022-10-31T08:32:26;34.03;;;20.37;;
5040;SDS011;2539;52.568;13.364;2022-10-31T08:34:52;28.80;;;20.23;;
5040;SDS011;2539;52.568;13.364;2022-10-31T08:37:19;29.63;;;20.07;;
5040;SDS011;2539;52.568;13.364;2022-10-31T08:39:46;29.00;;;20.27;;
5040;SDS011;2539;52.568;13.364;2022-10-31T08:42:12;30.90;;;22.10;;
5040;SDS011;2539;52.568;13.364;2022-10-31T08:44:39;34.70;;;21.00;;
5040;SDS011;2539;52.568;13.364;2022-10-31T08:47:05;31.90;;;20.53;;
5040;SDS011;2539;52.568;13.364;2022-10-31T08:49:31;25.83;;;20.53;;
5040;SDS011;2539;52.568;13.364;2022-10-31T08:51:58;28.43;;;21.30;;
5040;SDS011;2539;52.568;13.364;2022-10-31T08:54:24;29.37;;;20.63;;
5040;SDS011;2539;52.568;13.364;2022-10-31T08:56:53;32.53;;;21.63;;
5040;SDS011;2539;52.568;13.364;2022-10-31T08:59:21;33.13;;;22.30;;
5040;SDS011;2539;52.568;13.364;2022-10-31T09:01:47;33.43;;;21.30;;
5040;SDS011;2539;52.568;13.364;2022-10-31T09:04:13;45.33;;;21.40;;
5040;SDS011;2539;52.568;13.364;2022-10-31T09:06:40;27.53;;;20.20;;
5040;SDS011;2539;52.568;13.364;2022-10-31T09:09:06;33.27;;;20.03;;
5040;SDS011;2539;52.568;13.364;2022-10-31T09:11:32;28.17;;;20.43;;
5040;SDS011;2539;52.568;13.364;2022-10-31T09:13:58;30.57;;;21.53;;
5040;SDS011;2539;52.568;13.364;2022-10-31T09:16:25;33.87;;;21.43;;
5040;SDS011;2539;52.568;13.364;2022-10-31T09:18:51;33.70;;;20.17;;
5040;SDS011;2539;52.568;13.364;2022-10-31T09:21:17;31.00;;;21.07;;
5040;SDS011;2539;52.568;13.364;2022-10-31T09:23:44;34.70;;;22.10;;
5040;SDS011;2539;52.568;13.364;2022-10-31T09:26:10;40.47;;;22.03;;
5040;SDS011;2539;52.568;13.364;2022-10-31T09:28:36;29.07;;;21.67;;
5040;SDS011;2539;52.568;13.364;2022-10-31T09:31:03;29.50;;;21.53;;
5040;SDS011;2539;52.568;13.364;2022-10-31T09:33:29;29.43;;;22.50;;
5040;SDS011;2539;52.568;13.364;2022-10-31T09:35:57;32.70;;;22.80;;
5040;SDS011;2539;52.568;13.364;2022-10-31T09:38:24;30.47;;;19.73;;
5040;SDS011;2539;52.568;13.364;2022-10-31T09:40:54;43.73;;;22.67;;
5040;SDS011;2539;52.568;13.364;2022-10-31T09:46:39;33.20;;;22.17;;
5040;SDS011;2539;52.568;13.364;2022-10-31T09:49:33;30.60;;;20.67;;
5040;SDS011;2539;52.568;13.364;2022-10-31T09:52:24;37.30;;;22.43;;
5040;SDS011;2539;52.568;13.364;2022-10-31T09:54:58;28.40;;;20.17;;
5040;SDS011;2539;52.568;13.364;2022-10-31T09:57:32;33.83;;;20.03;;
5040;SDS011;2539;52.568;13.364;2022-10-31T10:00:03;25.77;;;19.90;;
5040;SDS011;2539;52.568;13.364;2022-10-31T10:02:39;30.00;;;21.03;;
5040;SDS011;2539;52.568;13.364;2022-10-31T10:05:10;30.10;;;19.83;;
5040;SDS011;2539;52.568;13.364;2022-10-31T10:13:23;29.93;;;20.90;;
5040;SDS011;2539;52.568;13.364;2022-10-31T10:16:39;33.23;;;21.97;;
5040;SDS011;2539;52.568;13.364;2022-10-31T10:19:23;30.93;;;19.70;;
5040;SDS011;2539;52.568;13.364;2022-10-31T10:22:20;32.03;;;21.93;;
5040;SDS011;2539;52.568;13.364;2022-10-31T10:25:01;30.57;;;21.10;;
5040;SDS011;2539;52.568;13.364;2022-10-31T10:30:46;33.33;;;21.10;;
5040;SDS011;2539;52.568;13.364;2022-10-31T10:33:19;27.80;;;19.63;;
5040;SDS011;2539;52.568;13.364;2022-10-31T10:36:03;33.23;;;21.40;;
5040;SDS011;2539;52.568;13.364;2022-10-31T10:38:48;28.00;;;22.50;;
5040;SDS011;2539;52.568;13.364;2022-10-31T10:41:17;29.20;;;21.73;;
5040;SDS011;2539;52.568;13.364;2022-10-31T10:43:48;26.80;;;21.27;;
5040;SDS011;2539;52.568;13.364;2022-10-31T10:49:24;35.97;;;22.20;;
5040;SDS011;2539;52.568;13.364;2022-10-31T11:00:25;33.87;;;21.50;;
5040;SDS011;2539;52.568;13.364;2022-10-31T11:02:55;36.40;;;21.37;;
5040;SDS011;2539;52.568;13.364;2022-10-31T11:05:27;32.33;;;22.70;;
5040;SDS011;2539;52.568;13.364;2022-10-31T11:08:06;36.10;;;25.23;;
5040;SDS011;2539;52.568;13.364;2022-10-31T11:10:32;33.47;;;22.67;;
5040;SDS011;2539;52.568;13.364;2022-10-31T11:13:15;29.50;;;21.83;;
5040;SDS011;2539;52.568;13.364;2022-10-31T11:15:50;32.93;;;23.47;;
5040;SDS011;2539;52.568;13.364;2022-10-31T11:18:22;36.23;;;25.57;;
5040;SDS011;2539;52.568;13.364;2022-10-31T11:20:51;34.37;;;26.50;;
5040;SDS011;2539;52.568;13.364;2022-10-31T11:23:20;38.00;;;26.30;;
5040;SDS011;2539;52.568;13.364;2022-10-31T11:25:48;36.17;;;24.40;;
5040;SDS011;2539;52.568;13.364;2022-10-31T11:28:17;31.83;;;22.60;;
5040;SDS011;2539;52.568;13.364;2022-10-31T11:30:51;34.77;;;24.07;;
5040;SDS011;2539;52.568;13.364;2022-10-31T11:33:30;34.47;;;23.03;;
5040;SDS011;2539;52.568;13.364;2022-10-31T11:36:00;33.10;;;23.70;;
5040;SDS011;2539;52.568;13.364;2022-10-31T11:38:32;34.17;;;23.63;;
5040;SDS011;2539;52.568;13.364;2022-10-31T11:41:08;29.80;;;22.97;;
5040;SDS011;2539;52.568;13.364;2022-10-31T11:43:48;34.13;;;24.90;;
5040;SDS011;2539;52.568;13.364;2022-10-31T11:46:19;33.03;;;25.10;;
5040;SDS011;2539;52.568;13.364;2022-10-31T11:48:51;37.07;;;24.60;;
5040;SDS011;2539;52.568;13.364;2022-10-31T11:51:24;31.07;;;23.87;;
5040;SDS011;2539;52.568;13.364;2022-10-31T11:53:54;33.97;;;23.70;;
5040;SDS011;2539;52.568;13.364;2022-10-31T11:56:23;35.37;;;24.13;;
5040;SDS011;2539;52.568;13.364;2022-10-31T11:58:56;31.90;;;23.13;;
5040;SDS011;2539;52.568;13.364;2022-10-31T12:01:27;38.90;;;26.20;;
5040;SDS011;2539;52.568;13.364;2022-10-31T12:04:10;38.90;;;25.20;;
5040;SDS011;2539;52.568;13.364;2022-10-31T12:06:44;40.03;;;25.10;;
5040;SDS011;2539;52.568;13.364;2022-10-31T12:09:23;31.10;;;25.47;;
5040;SDS011;2539;52.568;13.364;2022-10-31T12:12:03;40.77;;;24.80;;
5040;SDS011;2539;52.568;13.364;2022-10-31T12:17:52;41.40;;;25.07;;
5040;SDS011;2539;52.568;13.364;2022-10-31T12:21:03;35.83;;;25.47;;
5040;SDS011;2539;52.568;13.364;2022-10-31T12:29:39;35.77;;;23.63;;
5040;SDS011;2539;52.568;13.364;2022-10-31T12:32:27;36.07;;;23.87;;
5040;SDS011;2539;52.568;13.364;2022-10-31T12:35:21;33.03;;;24.47;;
5040;SDS011;2539;52.568;13.364;2022-10-31T12:37:58;36.17;;;22.60;;
5040;SDS011;2539;52.568;13.364;2022-10-31T12:41:02;36.10;;;23.73;;
5040;SDS011;2539;52.568;13.364;2022-10-31T12:43:46;49.73;;;34.80;;
5040;SDS011;2539;52.568;13.364;2022-10-31T12:51:49;35.77;;;23.40;;
5040;SDS011;2539;52.568;13.364;2022-10-31T13:00:19;37.17;;;26.80;;
5040;SDS011;2539;52.568;13.364;2022-10-31T13:03:14;31.07;;;22.73;;
5040;SDS011;2539;52.568;13.364;2022-10-31T13:05:51;32.10;;;21.77;;
5040;SDS011;2539;52.568;13.364;2022-10-31T13:08:22;30.60;;;22.50;;
5040;SDS011;2539;52.568;13.364;2022-10-31T13:13:30;33.33;;;20.87;;
5040;SDS011;2539;52.568;13.364;2022-10-31T13:16:03;31.13;;;22.40;;
5040;SDS011;2539;52.568;13.364;2022-10-31T13:21:17;32.63;;;22.70;;
5040;SDS011;2539;52.568;13.364;2022-10-31T13:23:50;40.70;;;25.10;;
5040;SDS011;2539;52.568;13.364;2022-10-31T13:38:28;31.17;;;22.30;;
5040;SDS011;2539;52.568;13.364;2022-10-31T13:44:13;37.67;;;22.33;;
5040;SDS011;2539;52.568;13.364;2022-10-31T13:46:43;39.17;;;23.27;;
5040;SDS011;2539;52.568;13.364;2022-10-31T13:57:06;44.40;;;30.50;;
5040;SDS011;2539;52.568;13.364;2022-10-31T13:59:59;39.37;;;29.77;;
5040;SDS011;2539;52.568;13.364;2022-10-31T14:02:46;44.30;;;31.10;;
5040;SDS011;2539;52.568;13.364;2022-10-31T14:08:04;47.17;;;32.90;;
5040;SDS011;2539;52.568;13.364;2022-10-31T14:10:32;46.57;;;32.83;;
5040;SDS011;2539;52.568;13.364;2022-10-31T14:13:07;49.93;;;33.80;;
5040;SDS011;2539;52.568;13.364;2022-10-31T14:15:42;43.10;;;33.40;;
5040;SDS011;2539;52.568;13.364;2022-10-31T14:18:23;50.67;;;36.43;;
5040;SDS011;2539;52.568;13.364;2022-10-31T14:20:55;57.57;;;39.83;;
5040;SDS011;2539;52.568;13.364;2022-10-31T14:26:17;55.10;;;38.57;;
5040;SDS011;2539;52.568;13.364;2022-10-31T14:28:43;51.80;;;35.70;;
5040;SDS011;2539;52.568;13.364;2022-10-31T14:34:26;52.87;;;38.10;;
5040;SDS011;2539;52.568;13.364;2022-10-31T14:42:48;60.13;;;39.43;;
5040;SDS011;2539;52.568;13.364;2022-10-31T14:45:41;54.57;;;37.73;;
5040;SDS011;2539;52.568;13.364;2022-10-31T14:51:16;60.97;;;42.03;;
5040;SDS011;2539;52.568;13.364;2022-10-31T14:53:46;59.47;;;40.10;;
5040;SDS011;2539;52.568;13.364;2022-10-31T14:56:19;59.13;;;40.77;;
5040;SDS011;2539;52.568;13.364;2022-10-31T14:58:51;61.93;;;41.67;;
5040;SDS011;2539;52.568;13.364;2022-10-31T15:03:53;68.00;;;44.13;;
5040;SDS011;2539;52.568;13.364;2022-10-31T15:06:42;65.33;;;42.17;;
5040;SDS011;2539;52.568;13.364;2022-10-31T15:09:21;64.07;;;41.30;;
5040;SDS011;2539;52.568;13.364;2022-10-31T15:11:49;69.93;;;43.07;;
5040;SDS011;2539;52.568;13.364;2022-10-31T15:14:28;64.50;;;42.03;;
5040;SDS011;2539;52.568;13.364;2022-10-31T15:16:56;63.97;;;42.10;;
5040;SDS011;2539;52.568;13.364;2022-10-31T15:19:25;64.40;;;42.77;;
5040;SDS011;2539;52.568;13.364;2022-10-31T15:21:54;73.80;;;45.00;;
5040;SDS011;2539;52.568;13.364;2022-10-31T15:24:23;68.60;;;43.97;;
5040;SDS011;2539;52.568;13.364;2022-10-31T15:26:53;71.27;;;45.20;;
5040;SDS011;2539;52.568;13.364;2022-10-31T15:29:22;66.37;;;44.70;;
5040;SDS011;2539;52.568;13.364;2022-10-31T15:31:56;72.57;;;47.77;;
5040;SDS011;2539;52.568;13.364;2022-10-31T15:34:26;77.93;;;47.10;;
5040;SDS011;2539;52.568;13.364;2022-10-31T15:37:04;84.97;;;51.70;;
5040;SDS011;2539;52.568;13.364;2022-10-31T15:39:39;75.57;;;48.23;;
5040;SDS011;2539;52.568;13.364;2022-10-31T15:42:19;81.47;;;49.00;;
5040;SDS011;2539;52.568;13.364;2022-10-31T15:45:24;87.23;;;48.13;;
5040;SDS011;2539;52.568;13.364;2022-10-31T15:47:53;89.97;;;50.47;;
5040;SDS011;2539;52.568;13.364;2022-10-31T15:53:03;88.93;;;53.03;;
5040;SDS011;2539;52.568;13.364;2022-10-31T15:55:33;102.50;;;53.40;;
5040;SDS011;2539;52.568;13.364;2022-10-31T15:58:10;95.43;;;53.57;;
5040;SDS011;2539;52.568;13.364;2022-10-31T16:00:38;96.50;;;54.30;;
5040;SDS011;2539;52.568;13.364;2022-10-31T16:05:43;105.00;;;56.17;;
5040;SDS011;2539;52.568;13.364;2022-10-31T16:08:24;122.90;;;58.83;;
5040;SDS011;2539;52.568;13.364;2022-10-31T16:13:33;105.63;;;57.40;;
5040;SDS011;2539;52.568;13.364;2022-10-31T16:16:11;121.77;;;62.77;;
5040;SDS011;2539;52.568;13.364;2022-10-31T16:18:40;117.50;;;61.47;;
5040;SDS011;2539;52.568;13.364;2022-10-31T16:21:08;112.83;;;60.30;;
5040;SDS011;2539;52.568;13.364;2022-10-31T16:23:35;106.87;;;58.77;;
5040;SDS011;2539;52.568;13.364;2022-10-31T16:26:05;118.03;;;59.57;;
5040;SDS011;2539;52.568;13.364;2022-10-31T16:28:33;108.33;;;57.17;;
5040;SDS011;2539;52.568;13.364;2022-10-31T16:30:59;104.33;;;56.17;;
5040;SDS011;2539;52.568;13.364;2022-10-31T16:33:35;105.37;;;56.30;;
5040;SDS011;2539;52.568;13.364;2022-10-31T16:38:54;103.97;;;56.63;;
5040;SDS011;2539;52.568;13.364;2022-10-31T16:41:20;100.80;;;56.67;;
5040;SDS011;2539;52.568;13.364;2022-10-31T16:43:48;148.60;;;60.40;;
5040;SDS011;2539;52.568;13.364;2022-10-31T16:46:15;125.47;;;56.20;;
5040;SDS011;2539;52.568;13.364;2022-10-31T16:48:45;119.03;;;56.80;;
5040;SDS011;2539;52.568;13.364;2022-10-31T16:51:11;222.63;;;57.27;;
5040;SDS011;2539;52.568;13.364;2022-10-31T16:53:38;109.00;;;57.20;;
5040;SDS011;2539;52.568;13.364;2022-10-31T16:56:04;114.13;;;58.57;;
5040;SDS011;2539;52.568;13.364;2022-10-31T16:58:31;104.57;;;57.60;;
5040;SDS011;2539;52.568;13.364;2022-10-31T17:00:59;120.73;;;59.40;;
5040;SDS011;2539;52.568;13.364;2022-10-31T17:03:27;115.60;;;59.20;;
5040;SDS011;2539;52.568;13.364;2022-10-31T17:05:53;118.13;;;62.50;;
5040;SDS011;2539;52.568;13.364;2022-10-31T17:08:23;246.03;;;59.73;;